Time;durP1;ratioP1;P1;durP2;ratioP2;P2;SDS_P1;SDS_P2;PMS_P1;PMS_P2;Temp;Humidity;BMP_temperature;BMP_pressure;BME280_temperature;BME280_humidity;BME280_pressure;Samples;Min_cycle;Max_cycle;Signal;HPM_P1;HPM_P2
2023/06/05 00:01:07;;;;;;;;;8.00;5.25;;;;;19.67;54.16;101335.13;146608;574;46020;-65
2023/06/05 00:04:10;;;;;;;;;8.00;4.75;;;;;19.64;53.95;101335.00;146604;675;47916;-64
2023/06/05 00:07:19;;;;;;;;;5.00;5.00;;;;;19.62;53.26;101328.00;146607;616;46020;-66
2023/06/05 00:10:31;;;;;;;;;;;;;;;;;;;;;
2023/06/05 00:13:33;;;;;;;;;7.25;6.75;;;;;19.56;54.32;101321.66;146607;638;46021;-67
2023/06/05 00:16:27;;;;;;;;;7.25;5.00;;;;;19.52;54.65;101310.19;146604;640;46016;-65
2023/06/05 00:19:24;;;;;;;;;5.50;5.50;;;;;19.50;54.53;101313.62;146607;655;46020;-67
2023/06/05 00:22:34;;;;;;;;;7.00;6.00;;;;;19.44;54.59;101317.03;146606;586;46017;-66
2023/06/05 00:25:30;;;;;;;;;5.25;5.00;;;;;19.44;55.39;101311.75;146609;571;47010;-67
2023/06/05 00:28:45;;;;;;;;;8.50;8.50;;;;;16.92;54.23;100884.28;146606;604;46014;-67
2023/06/05 00:31:42;;;;;;;;;7.50;5.75;;;;;19.43;54.68;101319.59;146607;625;47010;-65
2023/06/05 00:34:48;;;;;;;;;6.25;5.00;;;;;19.45;55.17;101320.53;146604;573;46014;-65
2023/06/05 00:37:56;;;;;;;;;;;;;;;;;;;;;
2023/06/05 00:41:06;;;;;;;;;8.00;7.00;;;;;17.13;54.83;100919.75;146604;599;47012;-67
2023/06/05 00:44:03;;;;;;;;;7.75;7.75;;;;;19.49;56.06;101331.16;146605;569;47010;-67
2023/06/05 00:47:04;;;;;;;;;7.50;7.25;;;;;19.38;56.90;101330.91;146608;599;46012;-66
2023/06/05 00:50:07;;;;;;;;;9.67;7.67;;;;;19.27;55.39;101326.22;146608;628;46021;-66
2023/06/05 00:53:20;;;;;;;;;5.00;5.00;;;;;19.19;55.45;101327.75;146604;635;46016;-65
2023/06/05 00:56:28;;;;;;;;;6.50;6.00;;;;;19.13;56.68;101334.66;146606;703;46028;-64
2023/06/05 00:59:34;;;;;;;;;6.75;5.75;;;;;19.04;56.95;101328.25;146605;672;47012;-65
2023/06/05 01:02:28;;;;;;;;;7.00;6.50;;;;;18.96;56.33;101321.91;146607;564;46010;-64
2023/06/05 01:05:30;;;;;;;;;9.75;6.25;;;;;18.91;55.48;101330.56;146603;620;47012;-65
2023/06/05 01:08:28;;;;;;;;;7.33;6.33;;;;;18.91;56.08;101327.06;146607;592;46020;-66
2023/06/05 01:11:53;;;;;;;;;6.50;5.75;;;;;18.95;55.00;101312.25;146605;612;46016;-65
2023/06/05 01:15:10;;;;;;;;;6.50;5.75;;;;;17.49;54.57;101064.94;146611;698;46010;-65
2023/06/05 01:18:18;;;;;;;;;6.25;6.00;;;;;18.99;55.05;101316.72;146604;696;46016;-64
2023/06/05 01:21:25;;;;;;;;;8.25;6.25;;;;;19.01;54.42;101325.56;146609;649;46020;-64
2023/06/05 01:24:33;;;;;;;;;5.25;4.00;;;;;19.05;54.67;101337.91;146605;566;46016;-65
2023/06/05 01:28:07;;;;;;;;;7.00;6.00;;;;;19.05;54.55;101333.53;146607;569;46021;-64
2023/06/05 01:31:21;;;;;;;;;6.50;6.50;;;;;19.02;54.57;101337.84;146605;598;47024;-63
2023/06/05 01:34:43;;;;;;;;;6.75;6.25;;;;;16.15;54.25;100847.09;146607;667;46027;-64
2023/06/05 01:37:47;;;;;;;;;5.00;5.00;;;;;18.86;55.18;101336.53;146602;681;47014;-64
2023/06/05 01:40:46;;;;;;;;;5.75;5.00;;;;;18.75;55.04;101327.47;146607;574;47011;-64
2023/06/05 01:43:53;;;;;;;;;5.25;4.75;;;;;18.69;55.26;101320.25;146608;722;46012;-64
2023/06/05 01:46:51;;;;;;;;;6.00;5.75;;;;;18.65;54.95;101315.78;146609;684;46010;-64
2023/06/05 01:49:54;;;;;;;;;5.75;5.25;;;;;18.62;55.14;101308.69;146605;587;46016;-65
2023/06/05 01:53:00;;;;;;;;;7.50;7.00;;;;;18.58;55.86;101304.22;146606;713;47010;-64
2023/06/05 01:56:08;;;;;;;;;;;;;;;;;;;;;
2023/06/05 01:59:46;;;;;;;;;5.50;5.00;;;;;15.93;55.50;100835.06;146609;587;46010;-65
2023/06/05 02:02:40;;;;;;;;;7.00;5.75;;;;;18.66;56.26;101299.16;146605;580;45580;-64
2023/06/05 02:05:43;;;;;;;;;7.50;5.00;;;;;18.68;55.54;101294.84;146606;578;46010;-66
2023/06/05 02:08:43;;;;;;;;;7.25;6.00;;;;;18.67;56.55;101296.59;146606;564;46012;-65
2023/06/05 02:11:47;;;;;;;;;;;;;;;;;;;;;
2023/06/05 02:15:10;;;;;;;;;;;;;;;;;;;;;
2023/06/05 02:18:07;;;;;;;;;8.75;7.00;;;;;18.80;56.55;101296.97;146608;739;46010;-64
2023/06/05 02:21:14;;;;;;;;;7.50;5.75;;;;;16.20;55.33;100831.50;146602;584;46033;-65
2023/06/05 02:24:32;;;;;;;;;4.25;4.25;;;;;18.96;56.32;101307.03;146607;655;46030;-64
2023/06/05 02:27:31;;;;;;;;;6.75;6.50;;;;;18.96;56.38;101308.75;146608;620;46012;-65
2023/06/05 02:30:26;;;;;;;;;9.50;7.25;;;;;18.86;57.23;101305.88;146607;618;46918;-65
2023/06/05 02:33:30;;;;;;;;;8.50;7.00;;;;;18.76;57.92;101309.13;146606;608;46016;-65
2023/06/05 02:36:32;;;;;;;;;6.75;6.75;;;;;18.66;57.48;101312.28;146604;577;46020;-65
2023/06/05 02:39:43;;;;;;;;;7.50;7.50;;;;;18.59;58.73;101316.50;146604;582;46914;-65
2023/06/05 02:42:49;;;;;;;;;6.75;4.75;;;;;18.48;57.28;101314.44;146609;569;47010;-65
2023/06/05 02:45:54;;;;;;;;;7.00;7.00;;;;;18.46;57.66;101317.88;146604;648;46016;-66
2023/06/05 02:48:48;;;;;;;;;8.25;7.25;;;;;18.46;58.64;101327.50;146606;604;47011;-67
2023/06/05 02:51:45;;;;;;;;;8.00;7.50;;;;;18.39;57.95;101322.94;146606;600;46012;-66
2023/06/05 02:54:51;;;;;;;;;9.50;7.00;;;;;18.33;58.60;101323.62;146608;677;46015;-65
2023/06/05 02:57:53;;;;;;;;;11.75;9.00;;;;;18.32;58.21;101329.75;146605;677;46016;-63
2023/06/05 03:00:46;;;;;;;;;10.25;7.00;;;;;18.31;58.71;101333.19;146607;597;46010;-63
2023/06/05 03:03:43;;;;;;;;;10.00;7.00;;;;;18.26;58.81;101336.56;146604;608;46017;-64
2023/06/05 03:06:36;;;;;;;;;9.25;8.25;;;;;18.15;59.32;101338.84;146605;692;46020;-65
2023/06/05 03:09:51;;;;;;;;;7.00;7.00;;;;;18.07;58.66;101335.09;146606;574;46012;-62
2023/06/05 03:12:54;;;;;;;;;6.50;6.50;;;;;18.04;59.74;101340.22;146606;616;46020;-63
2023/06/05 03:16:10;;;;;;;;;;;;;;;;;;;;;
2023/06/05 03:19:05;;;;;;;;;10.50;8.00;;;;;17.96;60.72;101335.66;146607;569;47014;-64
2023/06/05 03:22:07;;;;;;;;;7.50;7.25;;;;;17.99;60.93;101342.72;146600;622;47016;-65
2023/06/05 03:25:10;;;;;;;;;8.00;6.67;;;;;18.05;59.57;101342.91;146606;579;47021;-66
2023/06/05 03:28:13;;;;;;;;;8.25;8.00;;;;;18.11;60.78;101342.22;146608;596;45033;-65
2023/06/05 03:31:26;;;;;;;;;8.00;8.00;;;;;15.43;59.50;100863.94;146607;601;46020;-66
2023/06/05 03:34:32;;;;;;;;;6.25;6.00;;;;;18.19;60.08;101336.38;146604;638;47012;-66
2023/06/05 03:37:39;;;;;;;;;7.00;7.00;;;;;18.24;62.02;101333.88;146605;585;46020;-65
2023/06/05 03:40:45;;;;;;;;;9.00;6.75;;;;;18.30;60.31;101328.78;146606;675;46013;-65
2023/06/05 03:43:50;;;;;;;;;9.00;7.00;;;;;18.43;60.67;101333.56;146607;627;46010;-64
2023/06/05 03:47:06;;;;;;;;;8.00;7.00;;;;;18.58;60.46;101334.84;146606;592;47013;-64
2023/06/05 03:50:04;;;;;;;;;8.00;7.50;;;;;18.71;62.06;101334.34;146600;570;46916;-64
2023/06/05 03:53:14;;;;;;;;;;;;;;;;;;;;;
2023/06/05 03:56:15;;;;;;;;;9.75;8.00;;;;;18.98;60.78;101335.97;146608;664;46020;-65
2023/06/05 03:59:22;;;;;;;;;12.00;12.00;;;;;19.11;60.20;101336.34;146606;563;46016;-65
2023/06/05 04:02:20;;;;;;;;;10.25;9.00;;;;;19.20;61.04;101332.19;146608;590;46021;-65
2023/06/05 04:05:21;;;;;;;;;12.00;9.00;;;;;19.29;60.89;101337.66;146604;569;46916;-65
2023/06/05 04:08:32;;;;;;;;;8.25;7.00;;;;;19.33;61.25;101319.38;146605;684;46020;-64
2023/06/05 04:11:47;;;;;;;;;6.25;6.25;;;;;19.54;61.22;101329.53;146605;648;46016;-65
2023/06/05 04:15:00;;;;;;;;;8.25;8.25;;;;;19.78;61.68;101320.47;146607;687;46020;-65
2023/06/05 04:17:58;;;;;;;;;9.67;8.67;;;;;20.07;61.33;101316.75;146604;584;47012;-66
2023/06/05 04:20:53;;;;;;;;;6.25;5.75;;;;;20.33;59.91;101319.03;146607;572;46010;-64
2023/06/05 04:24:03;;;;;;;;;;;;;;;;;;;;;
2023/06/05 04:27:14;;;;;;;;;8.25;8.25;;;;;20.83;58.71;101315.66;146604;616;47014;-64
2023/06/05 04:30:16;;;;;;;;;11.33;9.33;;;;;21.03;58.77;101321.28;146608;577;47012;-65
2023/06/05 04:33:35;;;;;;;;;10.25;8.25;;;;;21.20;57.54;101325.13;146605;624;46020;-64
2023/06/05 04:36:40;;;;;;;;;9.00;8.00;;;;;21.35;57.04;101325.44;146605;576;46016;-64
2023/06/05 04:39:38;;;;;;;;;11.75;10.75;;;;;21.48;57.11;101330.91;146604;626;46021;-63
2023/06/05 04:42:44;;;;;;;;;12.25;12.00;;;;;21.56;56.46;101331.94;146604;633;46914;-62
2023/06/05 04:45:47;;;;;;;;;13.00;10.50;;;;;21.66;56.60;101341.75;146607;660;46011;-62
2023/06/05 04:48:45;;;;;;;;;13.25;12.00;;;;;21.76;55.19;101340.16;146604;702;46016;-63
2023/06/05 04:51:57;;;;;;;;;10.50;9.75;;;;;21.89;55.33;101342.09;146603;621;46020;-63
2023/06/05 04:55:12;;;;;;;;;14.00;11.00;;;;;22.11;53.39;101357.38;146603;648;46915;-64
2023/06/05 04:58:15;;;;;;;;;13.00;11.00;;;;;22.30;53.62;101337.41;146607;588;46010;-63
2023/06/05 05:01:43;;;;;;;;;10.00;10.00;;;;;19.90;52.43;100893.50;146604;631;47013;-63
2023/06/05 05:04:45;;;;;;;;;9.75;8.50;;;;;22.57;52.66;101341.28;146601;582;46020;-63
2023/06/05 05:07:43;;;;;;;;;9.00;9.00;;;;;22.68;52.29;101347.59;146606;564;46012;-63
2023/06/05 05:10:55;;;;;;;;;9.75;8.75;;;;;20.26;52.02;100916.88;146604;592;46010;-63
2023/06/05 05:13:51;;;;;;;;;8.50;8.50;;;;;22.90;52.83;101347.81;146605;565;45586;-63
2023/06/05 05:16:51;;;;;;;;;8.00;8.00;;;;;23.01;52.01;101351.47;146607;617;47011;-63
2023/06/05 05:19:50;;;;;;;;;7.33;7.00;;;;;23.07;52.62;101350.66;146608;601;46012;-64
2023/06/05 05:22:49;;;;;;;;;8.00;8.00;;;;;23.13;52.21;101362.19;146608;650;46011;-64
2023/06/05 05:25:51;;;;;;;;;7.75;7.75;;;;;23.16;51.85;101346.34;146604;721;46016;-63
2023/06/05 05:28:56;;;;;;;;;9.75;8.25;;;;;23.22;52.79;101356.97;146606;575;46020;-63
2023/06/05 05:32:02;;;;;;;;;9.00;8.00;;;;;23.32;52.56;101362.37;146604;570;46016;-63
2023/06/05 05:34:57;;;;;;;;;8.25;8.25;;;;;23.43;52.03;101360.72;146608;664;47014;-63
2023/06/05 05:37:55;;;;;;;;;9.00;7.75;;;;;23.55;51.85;101373.13;146600;695;47013;-64
2023/06/05 05:41:07;;;;;;;;;10.00;9.75;;;;;21.14;51.04;100921.56;146608;580;46010;-64
2023/06/05 05:44:02;;;;;;;;;10.00;8.50;;;;;23.79;50.42;101365.41;146604;630;46016;-66
2023/06/05 05:47:01;;;;;;;;;8.00;8.00;;;;;23.81;51.27;101362.78;146610;597;46020;-65
2023/06/05 05:50:08;;;;;;;;;9.25;8.00;;;;;23.88;51.80;101369.91;146608;598;46012;-64
2023/06/05 05:53:07;;;;;;;;;8.00;5.67;;;;;23.98;51.18;101367.31;146606;571;46021;-65
2023/06/05 05:56:05;;;;;;;;;7.67;6.67;;;;;24.09;51.43;101374.47;146606;571;46914;-65
2023/06/05 05:59:03;;;;;;;;;7.67;7.67;;;;;24.20;49.77;101378.94;146609;592;46011;-65
2023/06/05 06:01:58;;;;;;;;;6.50;5.00;;;;;24.27;49.94;101387.81;146605;583;46014;-65
2023/06/05 06:04:57;;;;;;;;;8.00;6.75;;;;;24.34;50.64;101384.31;146605;592;47014;-64
2023/06/05 06:08:08;;;;;;;;;7.00;7.00;;;;;24.42;50.55;101387.03;146606;701;46017;-66
2023/06/05 06:11:26;;;;;;;;;6.67;6.67;;;;;24.53;50.84;101387.09;146607;624;46020;-66
2023/06/05 06:14:49;;;;;;;;;3.33;2.00;;;;;22.25;50.09;100977.22;146606;646;46017;-65
2023/06/05 06:17:45;;;;;;;;;9.00;8.00;;;;;24.66;50.79;101388.91;146606;577;46020;-63
2023/06/05 06:20:43;;;;;;;;;7.00;6.00;;;;;24.71;50.79;101388.94;146606;578;47012;-64
2023/06/05 06:23:50;;;;;;;;;9.00;8.33;;;;;24.76;51.01;101385.38;146611;566;46028;-69
2023/06/05 06:26:48;;;;;;;;;8.67;6.33;;;;;24.80;50.92;101394.28;146607;597;46012;-67
2023/06/05 06:30:10;;;;;;;;;9.33;8.00;;;;;24.86;50.72;101394.28;146606;633;46021;-67
2023/06/05 06:33:19;;;;;;;;;6.67;6.00;;;;;24.97;50.08;101396.97;146606;615;46016;-68
2023/06/05 06:36:19;;;;;;;;;8.00;8.00;;;;;25.05;50.24;101397.88;146610;596;46020;-67
2023/06/05 06:39:22;;;;;;;;;8.00;8.00;;;;;25.12;50.12;101402.31;146606;605;47012;-68
2023/06/05 06:42:16;;;;;;;;;8.00;8.00;;;;;25.11;50.05;101400.56;146610;646;46010;-68
2023/06/05 06:45:29;;;;;;;;;7.33;7.33;;;;;24.02;49.68;101204.00;146607;681;46017;-68
2023/06/05 06:48:33;;;;;;;;;7.00;7.00;;;;;25.27;50.31;101404.16;146606;613;46020;-67
2023/06/05 06:51:37;;;;;;;;;7.00;6.33;;;;;25.33;49.95;101406.81;146625;623;46017;-68
2023/06/05 06:54:37;;;;;;;;;8.00;7.00;;;;;25.29;49.60;101402.34;146629;614;46010;-68
2023/06/05 06:57:50;;;;;;;;;7.67;7.67;;;;;25.12;50.00;101394.34;146628;575;45016;-68
2023/06/05 07:00:59;;;;;;;;;6.67;6.67;;;;;22.47;49.84;100965.03;146625;609;46010;-67
2023/06/05 07:03:59;;;;;;;;;8.33;8.33;;;;;24.86;50.28;101399.59;146626;630;45016;-67
2023/06/05 07:06:57;;;;;;;;;6.33;6.33;;;;;24.76;50.47;101401.31;146625;570;46021;-67
2023/06/05 07:10:18;;;;;;;;;8.00;8.00;;;;;24.65;51.31;101405.69;146626;573;45016;-67
2023/06/05 07:13:19;;;;;;;;;9.00;8.00;;;;;24.58;50.46;101403.88;146629;594;46010;-66
2023/06/05 07:16:41;;;;;;;;;9.75;9.50;;;;;24.53;50.93;101403.88;146628;677;46010;-68
2023/06/05 07:19:44;;;;;;;;;9.25;8.25;;;;;24.49;50.68;101406.53;146629;597;45020;-65
2023/06/05 07:22:54;;;;;;;;;12.00;9.50;;;;;24.43;51.29;101410.91;146627;578;46013;-66
2023/06/05 07:25:51;;;;;;;;;20.00;17.00;;;;;24.42;51.48;101410.88;146626;605;46010;-67
2023/06/05 07:29:15;;;;;;;;;42.50;33.00;;;;;24.42;51.65;101414.44;146622;628;45017;-67
2023/06/05 07:32:16;;;;;;;;;43.25;32.75;;;;;24.45;51.47;101416.19;146627;619;46010;-66
2023/06/05 07:35:23;;;;;;;;;46.00;35.00;;;;;24.45;51.18;101421.50;146623;578;45016;-67
2023/06/05 07:38:23;;;;;;;;;37.00;28.75;;;;;24.45;51.70;101425.91;146623;603;45020;-67
2023/06/05 07:41:25;;;;;;;;;59.50;42.75;;;;;24.42;51.94;101419.75;146625;584;46012;-68
2023/06/05 07:44:40;;;;;;;;;40.00;31.25;;;;;24.48;52.34;101421.50;146617;579;47010;-66
2023/06/05 07:47:42;;;;;;;;;24.50;20.50;;;;;24.63;52.76;101420.72;146623;582;46012;-66
2023/06/05 07:50:57;;;;;;;;;20.50;19.75;;;;;24.85;51.95;101421.69;146608;579;46020;-66
2023/06/05 07:54:16;;;;;;;;;18.25;18.00;;;;;21.95;50.86;100872.22;146606;571;46035;-67
2023/06/05 07:57:16;;;;;;;;;20.75;18.00;;;;;25.38;50.51;101414.75;146605;599;46010;-66
2023/06/05 08:00:22;;;;;;;;;18.50;14.00;;;;;25.63;50.36;101410.34;146604;730;46014;-68
2023/06/05 08:03:43;;;;;;;;;;;;;;;;;;;;;
2023/06/05 08:06:44;;;;;;;;;12.75;11.75;;;;;25.98;49.32;101416.59;146604;690;46016;-67
2023/06/05 08:09:57;;;;;;;;;8.33;8.33;;;;;26.14;49.36;101401.50;146608;584;46010;-67
2023/06/05 08:13:13;;;;;;;;;10.00;9.00;;;;;26.16;49.94;101398.81;146604;650;46016;-66
2023/06/05 08:16:16;;;;;;;;;10.33;8.33;;;;;26.19;50.15;101404.13;146607;595;46010;-66
2023/06/05 08:19:15;;;;;;;;;10.67;7.67;;;;;26.25;48.98;101407.66;146607;624;46016;-67
2023/06/05 08:22:12;;;;;;;;;10.67;7.00;;;;;25.22;49.99;101228.94;146612;618;46010;-65
2023/06/05 08:25:22;;;;;;;;;8.67;7.00;;;;;26.32;49.89;101404.97;146605;628;46016;-64
2023/06/05 08:28:34;;;;;;;;;8.33;8.33;;;;;26.42;50.15;101412.94;146606;591;46021;-64
2023/06/05 08:31:29;;;;;;;;;6.67;6.67;;;;;26.49;49.76;101398.75;146606;563;46031;-68
2023/06/05 08:34:35;;;;;;;;;8.00;8.00;;;;;26.55;50.05;101399.63;146607;617;46031;-65
2023/06/05 08:37:36;;;;;;;;;8.00;8.00;;;;;26.63;48.47;101400.47;146606;577;46016;-66
2023/06/05 08:40:33;;;;;;;;;5.67;5.33;;;;;26.68;47.77;101394.22;146607;569;46010;-64
2023/06/05 08:43:44;;;;;;;;;;;;;;;;;;;;;
2023/06/05 08:47:08;;;;;;;;;8.67;8.00;;;;;26.58;47.59;101400.50;146607;603;46020;-63
2023/06/05 08:50:26;;;;;;;;;7.00;6.33;;;;;26.46;47.73;101398.72;146607;638;47013;-64
2023/06/05 08:53:35;;;;;;;;;12.67;8.67;;;;;24.22;48.59;101005.31;146608;576;46020;-66
2023/06/05 08:56:41;;;;;;;;;7.33;7.00;;;;;26.57;47.63;101398.72;146606;594;46016;-65
2023/06/05 09:00:18;;;;;;;;;10.67;10.67;;;;;24.42;49.77;101064.56;146608;592;46010;-68
2023/06/05 09:03:18;;;;;;;;;8.67;8.67;;;;;26.51;50.96;101390.75;146605;600;47016;-66
2023/06/05 09:06:19;;;;;;;;;10.00;10.00;;;;;26.65;50.66;101396.03;146610;687;46010;-65
2023/06/05 09:09:23;;;;;;;;;9.00;9.00;;;;;26.66;50.18;101395.12;146605;613;46914;-66
2023/06/05 09:12:25;;;;;;;;;8.00;7.33;;;;;26.65;49.67;101391.59;146611;602;46015;-66
2023/06/05 09:15:40;;;;;;;;;10.33;9.33;;;;;26.72;49.84;101389.78;146606;613;46014;-65
2023/06/05 09:19:07;;;;;;;;;5.33;5.33;;;;;24.41;50.27;100977.03;146609;628;46028;-65
2023/06/05 09:22:05;;;;;;;;;11.75;11.50;;;;;26.81;50.73;101379.09;146604;666;46016;-68
2023/06/05 09:25:15;;;;;;;;;6.67;6.33;;;;;26.87;49.75;101387.03;146607;589;47020;-66
2023/06/05 09:28:23;;;;;;;;;22.50;20.50;;;;;24.71;49.72;101012.38;146604;579;46016;-65
2023/06/05 09:31:18;;;;;;;;;15.00;12.75;;;;;26.89;50.83;101387.94;146607;604;47014;-65
2023/06/05 09:34:16;;;;;;;;;7.33;7.33;;;;;26.81;50.22;101387.06;146604;586;46017;-65
2023/06/05 09:37:16;;;;;;;;;10.50;9.25;;;;;26.79;50.54;101388.88;146607;564;46020;-65
2023/06/05 09:40:15;;;;;;;;;13.25;13.25;;;;;26.70;50.83;101383.59;146607;580;46016;-66
2023/06/05 09:43:29;;;;;;;;;15.00;13.25;;;;;26.59;49.75;101380.09;146605;585;47011;-65
2023/06/05 09:46:42;;;;;;;;;12.50;12.00;;;;;24.05;51.48;100997.38;146602;584;47016;-66
2023/06/05 09:49:51;;;;;;;;;14.00;11.67;;;;;26.12;50.91;101397.94;146605;595;46021;-67
2023/06/05 09:52:44;;;;;;;;;10.33;8.67;;;;;26.08;53.40;101397.97;146604;579;46016;-65
2023/06/05 09:55:44;;;;;;;;;13.50;12.75;;;;;26.07;53.18;101393.53;146607;586;46020;-66
2023/06/05 09:58:57;;;;;;;;;11.75;9.25;;;;;26.01;52.56;101392.66;146602;624;47915;-66
2023/06/05 10:01:53;;;;;;;;;11.75;11.00;;;;;25.91;52.89;101392.66;146607;654;46020;-65
2023/06/05 10:04:54;;;;;;;;;11.75;11.75;;;;;25.76;53.53;101393.53;146601;600;47017;-65
2023/06/05 10:07:53;;;;;;;;;12.75;11.25;;;;;25.62;54.38;101397.97;146606;609;47010;-66
2023/06/05 10:10:56;;;;;;;;;7.50;7.50;;;;;25.51;54.47;101401.53;146606;564;46034;-67
2023/06/05 10:13:51;;;;;;;;;11.00;9.25;;;;;25.41;53.90;101391.75;146605;694;46021;-67
2023/06/05 10:16:59;;;;;;;;;13.50;11.25;;;;;25.31;53.86;101385.56;146602;597;46914;-66
2023/06/05 10:19:55;;;;;;;;;13.00;12.00;;;;;25.24;54.35;101382.91;146606;567;46020;-68
2023/06/05 10:23:08;;;;;;;;;12.50;11.00;;;;;25.18;53.25;101377.59;146604;647;46016;-65
2023/06/05 10:26:12;;;;;;;;;10.50;9.50;;;;;25.20;54.26;101375.81;146606;616;47010;-65
2023/06/05 10:29:40;;;;;;;;;10.67;9.00;;;;;25.26;52.82;101370.50;146607;618;47016;-65
2023/06/05 10:33:12;;;;;;;;;9.00;6.33;;;;;25.46;51.57;101360.78;146609;586;45020;-65
2023/06/05 10:36:32;;;;;;;;;7.33;7.33;;;;;25.79;50.61;101373.19;146604;565;46915;-65
2023/06/05 10:39:36;;;;;;;;;7.00;6.00;;;;;26.03;50.75;101363.41;146609;593;46020;-65
2023/06/05 10:42:39;;;;;;;;;8.00;7.00;;;;;26.18;49.91;101365.16;146607;597;46017;-65
2023/06/05 10:45:37;;;;;;;;;7.00;7.00;;;;;26.11;50.55;101374.03;146609;613;47010;-65
2023/06/05 10:49:05;;;;;;;;;6.67;6.00;;;;;26.03;50.11;101356.31;146607;627;46017;-67
2023/06/05 10:52:03;;;;;;;;;5.00;5.00;;;;;26.17;49.33;101358.06;146627;596;46010;-67
2023/06/05 10:55:03;;;;;;;;;6.33;6.33;;;;;26.22;48.76;101349.16;146622;616;46012;-65
2023/06/05 10:58:25;;;;;;;;;5.33;5.00;;;;;26.29;49.02;101344.72;146626;617;47021;-67
2023/06/05 11:01:29;;;;;;;;;7.00;7.00;;;;;26.43;48.48;101339.34;146622;611;47916;-66
2023/06/05 11:05:22;;;;;;;;;6.67;6.67;;;;;24.63;48.38;100996.47;146631;606;45008;-67
2023/06/05 11:08:39;;;;;;;;;7.00;7.00;;;;;25.15;48.59;101056.50;146626;571;46012;-66
2023/06/05 11:12:15;;;;;;;;;8.00;6.33;;;;;24.42;47.28;100926.72;146629;647;46010;-67
2023/06/05 11:15:12;;;;;;;;;5.67;5.67;;;;;26.71;48.56;101335.69;146625;646;45016;-67
2023/06/05 11:18:39;;;;;;;;;5.67;5.67;;;;;26.72;48.69;101325.94;146631;678;45011;-67
2023/06/05 11:22:09;;;;;;;;;8.33;6.00;;;;;24.57;49.18;100952.28;146625;563;46016;-65
2023/06/05 11:25:40;;;;;;;;;7.00;6.00;;;;;24.13;48.71;100888.75;146623;662;46916;-66
2023/06/05 11:28:58;;;;;;;;;8.33;6.67;;;;;26.62;48.26;101329.53;146627;653;45016;-66
2023/06/05 11:31:54;;;;;;;;;6.00;6.00;;;;;26.57;47.75;101329.56;146626;690;45020;-66
2023/06/05 11:34:59;;;;;;;;;4.00;4.00;;;;;26.50;49.63;101335.81;146622;571;46014;-67
2023/06/05 11:38:18;;;;;;;;;6.67;5.33;;;;;26.56;47.86;101327.78;146625;587;46020;-65
2023/06/05 11:41:27;;;;;;;;;7.67;7.33;;;;;24.21;48.59;100889.62;146626;579;46010;-66
2023/06/05 11:44:39;;;;;;;;;6.33;5.00;;;;;26.78;48.31;101322.34;146629;579;45020;-66
2023/06/05 11:47:45;;;;;;;;;6.67;5.33;;;;;26.84;48.18;101328.53;146625;584;45917;-67
2023/06/05 11:50:42;;;;;;;;;4.33;4.33;;;;;26.83;47.33;101333.88;146614;641;46020;-66
2023/06/05 11:53:53;;;;;;;;;5.33;4.33;;;;;26.82;48.31;101319.69;146605;611;47916;-66
2023/06/05 11:56:52;;;;;;;;;7.00;7.00;;;;;26.88;48.91;101326.72;146607;585;46020;-66
2023/06/05 12:00:11;;;;;;;;;6.00;5.00;;;;;26.94;47.50;101324.03;146605;596;47012;-66
2023/06/05 12:03:03;;;;;;;;;6.00;6.00;;;;;27.02;49.02;101322.19;146608;659;46020;-65
2023/06/05 12:06:07;;;;;;;;;6.00;6.00;;;;;27.10;47.79;101322.13;146605;578;46016;-65
2023/06/05 12:09:24;;;;;;;;;8.00;7.00;;;;;25.03;47.75;100964.50;146608;631;47020;-66
2023/06/05 12:12:28;;;;;;;;;2.00;2.00;;;;;27.13;47.76;101322.09;146605;592;46018;-66
2023/06/05 12:15:27;;;;;;;;;6.67;5.33;;;;;27.17;47.65;101306.16;146611;627;46010;-65
2023/06/05 12:18:48;;;;;;;;;7.67;7.00;;;;;27.24;47.35;101298.13;146607;588;47025;-66
2023/06/05 12:21:54;;;;;;;;;4.00;2.00;;;;;27.26;47.38;101304.28;146606;584;46020;-66
2023/06/05 12:24:55;;;;;;;;;5.33;5.33;;;;;27.27;48.22;101301.63;146605;631;46017;-66
2023/06/05 12:27:53;;;;;;;;;10.00;6.67;;;;;27.28;47.31;101294.50;146608;586;46020;-65
2023/06/05 12:31:09;;;;;;;;;8.67;7.67;;;;;27.26;47.67;101297.22;146604;599;46016;-66
2023/06/05 12:34:12;;;;;;;;;6.00;4.33;;;;;27.18;47.89;101299.03;146607;563;46020;-65
2023/06/05 12:37:33;;;;;;;;;8.67;6.67;;;;;27.08;48.33;101287.56;146606;597;46014;-66
2023/06/05 12:40:32;;;;;;;;;5.00;5.00;;;;;27.07;48.18;101298.19;146609;608;46010;-65
2023/06/05 12:43:39;;;;;;;;;7.00;5.00;;;;;27.10;48.89;101285.78;146605;589;46016;-65
2023/06/05 12:46:42;;;;;;;;;4.00;4.00;;;;;27.22;49.30;101283.91;146610;583;46010;-65
2023/06/05 12:49:40;;;;;;;;;5.00;5.00;;;;;27.36;48.52;101272.25;146607;565;46012;-66
2023/06/05 12:52:38;;;;;;;;;5.67;5.67;;;;;27.43;47.30;101272.19;146608;628;47010;-67
2023/06/05 12:55:44;;;;;;;;;6.00;6.00;;;;;27.44;49.01;101264.19;146608;624;46012;-65
2023/06/05 12:58:39;;;;;;;;;3.00;3.00;;;;;27.40;48.24;101267.78;146606;586;46010;-66
2023/06/05 13:01:39;;;;;;;;;7.00;7.00;;;;;27.33;47.97;101266.09;146603;674;46017;-66
2023/06/05 13:05:01;;;;;;;;;;;;;;;;;;;;;
2023/06/05 13:08:33;;;;;;;;;6.67;6.00;;;;;27.28;46.37;101250.13;146604;579;46016;-66
2023/06/05 13:11:48;;;;;;;;;7.33;6.00;;;;;25.18;46.63;100879.56;146607;573;46020;-66
2023/06/05 13:15:06;;;;;;;;;9.00;7.33;;;;;27.37;45.91;101243.84;146606;605;47014;-66
2023/06/05 13:18:27;;;;;;;;;6.00;6.00;;;;;27.38;45.76;101251.84;146607;566;47020;-65
2023/06/05 13:21:25;;;;;;;;;7.00;7.00;;;;;27.37;46.48;101241.19;146607;594;45017;-66
2023/06/05 13:24:24;;;;;;;;;7.00;6.00;;;;;27.35;46.16;101241.22;146607;586;47020;-66
2023/06/05 13:27:37;;;;;;;;;7.00;6.00;;;;;27.34;46.39;101246.53;146607;634;47012;-66
2023/06/05 13:30:50;;;;;;;;;7.00;6.67;;;;;27.29;46.09;101237.69;146608;594;47020;-65
2023/06/05 13:33:38;;;;;;;;;3.33;2.67;;;;;27.20;45.57;101232.47;146702;566;46022;-67
2023/06/05 13:36:41;;;;;;;;;7.33;7.33;;;;;27.14;46.84;101223.66;146615;589;47016;-67
2023/06/05 13:39:51;;;;;;;;;6.00;6.00;;;;;27.08;47.20;101223.66;146621;589;46020;-65
2023/06/05 13:42:50;;;;;;;;;7.33;6.33;;;;;27.03;47.67;101213.94;146615;602;46016;-66
2023/06/05 13:45:54;;;;;;;;;6.33;6.33;;;;;25.98;47.77;101041.00;146622;601;46010;-67
2023/06/05 13:49:00;;;;;;;;;11.00;7.00;;;;;26.83;49.32;101201.72;146615;617;46017;-65
2023/06/05 13:52:05;;;;;;;;;8.00;7.67;;;;;26.78;48.86;101200.84;146625;619;46010;-66
2023/06/05 13:55:03;;;;;;;;;6.67;6.00;;;;;26.75;49.35;101205.31;146614;590;46016;-66
2023/06/05 13:58:00;;;;;;;;;5.00;5.00;;;;;25.67;49.77;101017.31;146618;644;46021;-66
2023/06/05 14:00:59;;;;;;;;;8.00;8.00;;;;;26.66;49.30;101199.16;146619;651;46915;-66
2023/06/05 14:03:57;;;;;;;;;7.00;7.00;;;;;26.62;50.09;101201.88;146622;630;46021;-65
2023/06/05 14:06:55;;;;;;;;;8.00;6.00;;;;;26.52;50.13;101209.03;146617;622;47016;-66
2023/06/05 14:09:59;;;;;;;;;7.33;5.67;;;;;26.42;51.40;101207.31;146621;584;47012;-67
2023/06/05 14:13:03;;;;;;;;;8.33;6.00;;;;;26.32;50.92;101201.12;146612;571;46016;-68
2023/06/05 14:16:10;;;;;;;;;5.00;5.00;;;;;26.21;50.69;101174.62;146620;616;47020;-66
2023/06/05 14:19:14;;;;;;;;;5.33;5.33;;;;;26.25;50.78;101199.41;146618;624;46017;-66
2023/06/05 14:22:19;;;;;;;;;7.33;6.00;;;;;26.18;52.57;101193.25;146619;661;47010;-67
2023/06/05 14:25:25;;;;;;;;;7.00;5.67;;;;;26.18;53.60;101184.41;146617;573;46017;-68
2023/06/05 14:28:31;;;;;;;;;8.00;7.00;;;;;26.15;53.73;101190.63;146620;695;46020;-67
2023/06/05 14:31:38;;;;;;;;;6.00;5.67;;;;;26.10;54.45;101179.13;146615;578;47014;-67
2023/06/05 14:34:40;;;;;;;;;5.00;4.33;;;;;26.05;54.06;101172.09;146619;581;46021;-65
2023/06/05 14:37:44;;;;;;;;;;;;;;;;;;;;;
2023/06/05 14:40:57;;;;;;;;;6.00;6.00;;;;;25.87;54.32;101170.41;146617;606;47021;-67